sensor_id;sensor_type;location;lat;lon;timestamp;temperature;humidity
51867;DHT22;52862;52.504;13.480;2023-05-21T00:01:04;15.90;99.90
51867;DHT22;52862;52.504;13.480;2023-05-21T00:03:31;16.50;99.90
51867;DHT22;52862;52.504;13.480;2023-05-21T00:08:26;17.20;99.90
51867;DHT22;52862;52.504;13.480;2023-05-21T00:10:54;16.50;99.90
51867;DHT22;52862;52.504;13.480;2023-05-21T00:13:20;16.60;99.90
51867;DHT22;52862;52.504;13.480;2023-05-21T00:18:14;15.70;99.90
51867;DHT22;52862;52.504;13.480;2023-05-21T00:23:08;16.50;99.90
51867;DHT22;52862;52.504;13.480;2023-05-21T00:28:03;16.00;99.90
51867;DHT22;52862;52.504;13.480;2023-05-21T00:30:30;16.50;99.90
51867;DHT22;52862;52.504;13.480;2023-05-21T00:40:22;16.30;99.90
51867;DHT22;52862;52.504;13.480;2023-05-21T00:45:16;16.10;99.90
51867;DHT22;52862;52.504;13.480;2023-05-21T00:47:44;16.40;99.90
51867;DHT22;52862;52.504;13.480;2023-05-21T00:50:13;16.50;99.90
51867;DHT22;52862;52.504;13.480;2023-05-21T00:52:42;16.00;99.90
51867;DHT22;52862;52.504;13.480;2023-05-21T00:55:10;16.20;99.90
51867;DHT22;52862;52.504;13.480;2023-05-21T00:57:39;16.30;99.90
51867;DHT22;52862;52.504;13.480;2023-05-21T01:00:06;15.40;99.90
51867;DHT22;52862;52.504;13.480;2023-05-21T01:02:36;16.20;99.90
51867;DHT22;52862;52.504;13.480;2023-05-21T01:05:04;16.20;99.90
51867;DHT22;52862;52.504;13.480;2023-05-21T01:10:01;16.20;99.90
51867;DHT22;52862;52.504;13.480;2023-05-21T01:12:30;16.20;99.90
51867;DHT22;52862;52.504;13.480;2023-05-21T01:14:58;16.40;99.90
51867;DHT22;52862;52.504;13.480;2023-05-21T01:17:26;16.20;99.90
51867;DHT22;52862;52.504;13.480;2023-05-21T01:19:56;16.00;99.90
51867;DHT22;52862;52.504;13.480;2023-05-21T01:22:25;16.20;99.90
51867;DHT22;52862;52.504;13.480;2023-05-21T01:24:54;16.00;99.90
51867;DHT22;52862;52.504;13.480;2023-05-21T01:27:21;16.10;99.90
51867;DHT22;52862;52.504;13.480;2023-05-21T01:32:19;15.70;99.90
51867;DHT22;52862;52.504;13.480;2023-05-21T01:34:53;16.10;99.90
51867;DHT22;52862;52.504;13.480;2023-05-21T01:37:24;15.60;99.90
51867;DHT22;52862;52.504;13.480;2023-05-21T01:39:55;15.90;99.90
51867;DHT22;52862;52.504;13.480;2023-05-21T01:42:24;15.80;99.90
51867;DHT22;52862;52.504;13.480;2023-05-21T01:44:55;15.80;99.90
51867;DHT22;52862;52.504;13.480;2023-05-21T01:47:23;15.80;99.90
51867;DHT22;52862;52.504;13.480;2023-05-21T01:52:18;15.80;99.90
51867;DHT22;52862;52.504;13.480;2023-05-21T01:57:12;15.70;99.90
51867;DHT22;52862;52.504;13.480;2023-05-21T01:59:39;15.70;99.90
51867;DHT22;52862;52.504;13.480;2023-05-21T02:04:33;15.70;99.90
51867;DHT22;52862;52.504;13.480;2023-05-21T02:06:59;15.70;99.90
51867;DHT22;52862;52.504;13.480;2023-05-21T02:11:55;15.70;99.90
51867;DHT22;52862;52.504;13.480;2023-05-21T02:14:22;15.60;99.90
51867;DHT22;52862;52.504;13.480;2023-05-21T02:16:50;15.80;99.90
51867;DHT22;52862;52.504;13.480;2023-05-21T02:19:17;15.70;99.90
51867;DHT22;52862;52.504;13.480;2023-05-21T02:26:38;15.40;99.90
51867;DHT22;52862;52.504;13.480;2023-05-21T02:29:05;15.50;99.90
51867;DHT22;52862;52.504;13.480;2023-05-21T02:31:32;15.60;99.90
51867;DHT22;52862;52.504;13.480;2023-05-21T02:33:59;15.80;99.90
51867;DHT22;52862;52.504;13.480;2023-05-21T02:36:26;15.40;99.90
51867;DHT22;52862;52.504;13.480;2023-05-21T02:41:22;15.10;99.90
51867;DHT22;52862;52.504;13.480;2023-05-21T02:43:49;15.20;99.90
51867;DHT22;52862;52.504;13.480;2023-05-21T02:48:43;15.30;99.90
51867;DHT22;52862;52.504;13.480;2023-05-21T02:51:10;15.30;99.90
51867;DHT22;52862;52.504;13.480;2023-05-21T02:53:38;15.70;99.90
51867;DHT22;52862;52.504;13.480;2023-05-21T02:56:05;15.70;99.90
51867;DHT22;52862;52.504;13.480;2023-05-21T02:58:32;15.40;99.90
51867;DHT22;52862;52.504;13.480;2023-05-21T03:03:26;14.90;99.90
51867;DHT22;52862;52.504;13.480;2023-05-21T03:05:54;15.20;99.90
51867;DHT22;52862;52.504;13.480;2023-05-21T03:13:15;15.50;99.90
51867;DHT22;52862;52.504;13.480;2023-05-21T03:20:36;15.70;99.90
51867;DHT22;52862;52.504;13.480;2023-05-21T03:23:09;15.20;99.90
51867;DHT22;52862;52.504;13.480;2023-05-21T03:30:35;15.70;99.90
51867;DHT22;52862;52.504;13.480;2023-05-21T03:33:03;15.60;99.90
51867;DHT22;52862;52.504;13.480;2023-05-21T03:37:58;15.40;99.90
51867;DHT22;52862;52.504;13.480;2023-05-21T03:40:26;15.20;99.90
51867;DHT22;52862;52.504;13.480;2023-05-21T03:45:19;15.80;99.90
51867;DHT22;52862;52.504;13.480;2023-05-21T03:47:46;15.70;99.90
51867;DHT22;52862;52.504;13.480;2023-05-21T03:50:14;15.70;99.90
51867;DHT22;52862;52.504;13.480;2023-05-21T03:52:40;15.70;99.90
51867;DHT22;52862;52.504;13.480;2023-05-21T03:55:08;15.70;99.90
51867;DHT22;52862;52.504;13.480;2023-05-21T03:57:35;15.60;99.90
51867;DHT22;52862;52.504;13.480;2023-05-21T04:00:03;15.90;99.90
51867;DHT22;52862;52.504;13.480;2023-05-21T04:02:31;15.80;99.90
51867;DHT22;52862;52.504;13.480;2023-05-21T04:04:57;16.20;99.90
51867;DHT22;52862;52.504;13.480;2023-05-21T04:09:52;16.20;99.90
51867;DHT22;52862;52.504;13.480;2023-05-21T04:14:47;16.00;99.90
51867;DHT22;52862;52.504;13.480;2023-05-21T04:17:13;16.10;99.90
51867;DHT22;52862;52.504;13.480;2023-05-21T04:22:09;16.30;99.90
51867;DHT22;52862;52.504;13.480;2023-05-21T04:24:36;16.40;99.90
51867;DHT22;52862;52.504;13.480;2023-05-21T04:27:04;16.70;99.90
51867;DHT22;52862;52.504;13.480;2023-05-21T04:29:32;16.60;99.90
51867;DHT22;52862;52.504;13.480;2023-05-21T04:31:59;16.60;99.90
51867;DHT22;52862;52.504;13.480;2023-05-21T04:34:26;16.90;99.90
51867;DHT22;52862;52.504;13.480;2023-05-21T04:36:52;16.90;99.90
51867;DHT22;52862;52.504;13.480;2023-05-21T04:39:19;17.00;99.90
51867;DHT22;52862;52.504;13.480;2023-05-21T04:41:46;17.10;99.90
51867;DHT22;52862;52.504;13.480;2023-05-21T04:44:15;17.20;99.90
51867;DHT22;52862;52.504;13.480;2023-05-21T04:46:42;17.30;99.90
51867;DHT22;52862;52.504;13.480;2023-05-21T04:49:11;17.40;99.90
51867;DHT22;52862;52.504;13.480;2023-05-21T04:51:38;17.50;99.90
51867;DHT22;52862;52.504;13.480;2023-05-21T04:54:05;17.50;99.90
51867;DHT22;52862;52.504;13.480;2023-05-21T04:56:32;17.60;99.90
51867;DHT22;52862;52.504;13.480;2023-05-21T04:58:58;17.90;99.90
51867;DHT22;52862;52.504;13.480;2023-05-21T05:01:25;17.80;99.90
51867;DHT22;52862;52.504;13.480;2023-05-21T05:03:54;17.90;99.90
51867;DHT22;52862;52.504;13.480;2023-05-21T05:06:22;18.00;99.90
51867;DHT22;52862;52.504;13.480;2023-05-21T05:08:50;18.10;99.90
51867;DHT22;52862;52.504;13.480;2023-05-21T05:11:17;18.40;99.90
51867;DHT22;52862;52.504;13.480;2023-05-21T05:16:11;18.30;99.90
51867;DHT22;52862;52.504;13.480;2023-05-21T05:18:39;18.30;99.90
51867;DHT22;52862;52.504;13.480;2023-05-21T05:21:06;18.50;99.90
51867;DHT22;52862;52.504;13.480;2023-05-21T05:23:33;18.40;99.90
51867;DHT22;52862;52.504;13.480;2023-05-21T05:26:00;18.50;99.90
51867;DHT22;52862;52.504;13.480;2023-05-21T05:28:27;18.50;99.90
51867;DHT22;52862;52.504;13.480;2023-05-21T05:30:53;18.70;99.90
51867;DHT22;52862;52.504;13.480;2023-05-21T05:33:20;18.60;99.90
51867;DHT22;52862;52.504;13.480;2023-05-21T05:35:47;18.90;99.90
51867;DHT22;52862;52.504;13.480;2023-05-21T05:38:14;19.00;99.90
51867;DHT22;52862;52.504;13.480;2023-05-21T05:40:42;19.00;99.90
51867;DHT22;52862;52.504;13.480;2023-05-21T05:43:09;19.20;99.90
51867;DHT22;52862;52.504;13.480;2023-05-21T05:45:36;19.00;99.90
51867;DHT22;52862;52.504;13.480;2023-05-21T05:48:04;19.20;99.90
51867;DHT22;52862;52.504;13.480;2023-05-21T05:50:31;19.20;99.90
51867;DHT22;52862;52.504;13.480;2023-05-21T05:52:58;19.00;99.90
51867;DHT22;52862;52.504;13.480;2023-05-21T05:55:24;19.30;99.90
51867;DHT22;52862;52.504;13.480;2023-05-21T05:57:52;19.30;99.90
51867;DHT22;52862;52.504;13.480;2023-05-21T06:00:19;19.40;99.90
51867;DHT22;52862;52.504;13.480;2023-05-21T06:02:45;19.60;99.90
51867;DHT22;52862;52.504;13.480;2023-05-21T06:05:13;19.60;99.90
51867;DHT22;52862;52.504;13.480;2023-05-21T06:07:40;19.60;99.90
51867;DHT22;52862;52.504;13.480;2023-05-21T06:10:08;19.70;99.90
51867;DHT22;52862;52.504;13.480;2023-05-21T06:12:34;19.90;99.90
51867;DHT22;52862;52.504;13.480;2023-05-21T06:15:02;19.80;99.90
51867;DHT22;52862;52.504;13.480;2023-05-21T06:17:29;19.80;99.90
51867;DHT22;52862;52.504;13.480;2023-05-21T06:19:56;20.10;99.90
51867;DHT22;52862;52.504;13.480;2023-05-21T06:22:23;19.80;99.90
51867;DHT22;52862;52.504;13.480;2023-05-21T06:24:51;19.90;99.90
51867;DHT22;52862;52.504;13.480;2023-05-21T06:27:18;19.90;99.90
51867;DHT22;52862;52.504;13.480;2023-05-21T06:29:45;19.90;99.90
51867;DHT22;52862;52.504;13.480;2023-05-21T06:32:12;19.90;99.90
51867;DHT22;52862;52.504;13.480;2023-05-21T06:34:39;20.00;99.90
51867;DHT22;52862;52.504;13.480;2023-05-21T06:37:06;20.00;99.90
51867;DHT22;52862;52.504;13.480;2023-05-21T06:39:33;20.20;99.90
51867;DHT22;52862;52.504;13.480;2023-05-21T06:41:59;20.10;99.90
51867;DHT22;52862;52.504;13.480;2023-05-21T06:44:26;20.10;99.90
51867;DHT22;52862;52.504;13.480;2023-05-21T06:46:53;20.10;99.90
51867;DHT22;52862;52.504;13.480;2023-05-21T06:49:20;20.30;99.90
51867;DHT22;52862;52.504;13.480;2023-05-21T06:51:47;20.20;99.90
51867;DHT22;52862;52.504;13.480;2023-05-21T06:54:14;20.10;99.90
51867;DHT22;52862;52.504;13.480;2023-05-21T06:56:41;20.00;99.90
51867;DHT22;52862;52.504;13.480;2023-05-21T06:59:07;20.30;99.90
51867;DHT22;52862;52.504;13.480;2023-05-21T07:01:34;20.30;99.90
51867;DHT22;52862;52.504;13.480;2023-05-21T07:04:01;20.30;99.90
51867;DHT22;52862;52.504;13.480;2023-05-21T07:06:28;20.30;99.90
51867;DHT22;52862;52.504;13.480;2023-05-21T07:08:55;20.10;99.90
51867;DHT22;52862;52.504;13.480;2023-05-21T07:11:22;20.30;99.90
51867;DHT22;52862;52.504;13.480;2023-05-21T07:13:53;20.60;99.90
51867;DHT22;52862;52.504;13.480;2023-05-21T07:16:20;20.70;99.90
51867;DHT22;52862;52.504;13.480;2023-05-21T07:18:47;20.80;99.90
51867;DHT22;52862;52.504;13.480;2023-05-21T07:21:13;21.00;99.90
51867;DHT22;52862;52.504;13.480;2023-05-21T07:23:41;21.20;99.90
51867;DHT22;52862;52.504;13.480;2023-05-21T07:26:08;21.30;99.90
51867;DHT22;52862;52.504;13.480;2023-05-21T07:28:35;21.50;99.90
51867;DHT22;52862;52.504;13.480;2023-05-21T07:31:02;21.80;99.90
51867;DHT22;52862;52.504;13.480;2023-05-21T07:33:28;21.90;99.90
51867;DHT22;52862;52.504;13.480;2023-05-21T07:35:55;22.10;99.90
51867;DHT22;52862;52.504;13.480;2023-05-21T07:38:22;22.30;99.90
51867;DHT22;52862;52.504;13.480;2023-05-21T07:40:49;22.60;99.90
51867;DHT22;52862;52.504;13.480;2023-05-21T07:43:16;22.70;99.90
51867;DHT22;52862;52.504;13.480;2023-05-21T07:45:43;22.60;99.90
51867;DHT22;52862;52.504;13.480;2023-05-21T07:48:10;22.60;99.90
51867;DHT22;52862;52.504;13.480;2023-05-21T07:50:37;22.80;99.90
51867;DHT22;52862;52.504;13.480;2023-05-21T07:53:03;22.90;99.90
51867;DHT22;52862;52.504;13.480;2023-05-21T07:55:30;23.10;99.90
51867;DHT22;52862;52.504;13.480;2023-05-21T07:57:58;23.00;99.90
51867;DHT22;52862;52.504;13.480;2023-05-21T08:00:24;23.00;99.90
51867;DHT22;52862;52.504;13.480;2023-05-21T08:02:51;23.10;99.90
51867;DHT22;52862;52.504;13.480;2023-05-21T08:05:24;23.20;99.90
51867;DHT22;52862;52.504;13.480;2023-05-21T08:07:51;23.30;99.90
51867;DHT22;52862;52.504;13.480;2023-05-21T08:10:18;23.40;99.90
51867;DHT22;52862;52.504;13.480;2023-05-21T08:12:45;23.50;99.90
51867;DHT22;52862;52.504;13.480;2023-05-21T08:15:12;23.40;99.90
51867;DHT22;52862;52.504;13.480;2023-05-21T08:17:39;23.60;99.90
51867;DHT22;52862;52.504;13.480;2023-05-21T08:20:07;23.50;99.90
51867;DHT22;52862;52.504;13.480;2023-05-21T08:22:34;23.60;99.90
51867;DHT22;52862;52.504;13.480;2023-05-21T08:25:01;23.80;99.90
51867;DHT22;52862;52.504;13.480;2023-05-21T08:27:28;23.70;99.90
51867;DHT22;52862;52.504;13.480;2023-05-21T08:29:54;23.90;99.90
51867;DHT22;52862;52.504;13.480;2023-05-21T08:32:22;23.80;99.90
51867;DHT22;52862;52.504;13.480;2023-05-21T08:34:49;23.80;99.90
51867;DHT22;52862;52.504;13.480;2023-05-21T08:37:15;23.70;99.90
51867;DHT22;52862;52.504;13.480;2023-05-21T08:39:43;23.90;99.90
51867;DHT22;52862;52.504;13.480;2023-05-21T08:42:18;24.00;99.90
51867;DHT22;52862;52.504;13.480;2023-05-21T08:45:05;24.20;99.90
51867;DHT22;52862;52.504;13.480;2023-05-21T08:47:34;24.30;99.90
51867;DHT22;52862;52.504;13.480;2023-05-21T08:50:02;24.40;99.90
51867;DHT22;52862;52.504;13.480;2023-05-21T08:52:30;24.50;99.90
51867;DHT22;52862;52.504;13.480;2023-05-21T08:54:57;24.70;99.90
51867;DHT22;52862;52.504;13.480;2023-05-21T08:57:24;24.60;99.90
51867;DHT22;52862;52.504;13.480;2023-05-21T08:59:52;24.70;99.90
51867;DHT22;52862;52.504;13.480;2023-05-21T09:02:19;24.60;99.90
51867;DHT22;52862;52.504;13.480;2023-05-21T09:04:47;24.70;99.90
51867;DHT22;52862;52.504;13.480;2023-05-21T09:07:15;24.90;99.90
51867;DHT22;52862;52.504;13.480;2023-05-21T09:09:48;25.10;99.90
51867;DHT22;52862;52.504;13.480;2023-05-21T09:12:18;24.90;99.90
51867;DHT22;52862;52.504;13.480;2023-05-21T09:14:46;24.90;99.90
51867;DHT22;52862;52.504;13.480;2023-05-21T09:17:13;25.00;99.90
51867;DHT22;52862;52.504;13.480;2023-05-21T09:20:06;25.00;99.90
51867;DHT22;52862;52.504;13.480;2023-05-21T09:22:40;25.30;99.90
51867;DHT22;52862;52.504;13.480;2023-05-21T09:25:08;25.20;99.90
51867;DHT22;52862;52.504;13.480;2023-05-21T09:27:36;25.20;99.90
51867;DHT22;52862;52.504;13.480;2023-05-21T09:30:04;25.40;99.90
51867;DHT22;52862;52.504;13.480;2023-05-21T09:32:31;25.20;99.90
51867;DHT22;52862;52.504;13.480;2023-05-21T09:35:06;25.20;99.90
51867;DHT22;52862;52.504;13.480;2023-05-21T09:37:37;25.20;99.90
51867;DHT22;52862;52.504;13.480;2023-05-21T09:40:09;25.20;99.90
51867;DHT22;52862;52.504;13.480;2023-05-21T09:42:38;25.00;99.90
51867;DHT22;52862;52.504;13.480;2023-05-21T09:45:08;25.40;99.90
51867;DHT22;52862;52.504;13.480;2023-05-21T09:47:40;25.30;99.90
51867;DHT22;52862;52.504;13.480;2023-05-21T09:50:09;25.20;99.90
51867;DHT22;52862;52.504;13.480;2023-05-21T09:52:36;25.40;99.90
51867;DHT22;52862;52.504;13.480;2023-05-21T09:55:06;25.50;99.90
51867;DHT22;52862;52.504;13.480;2023-05-21T09:58:10;25.50;99.90
51867;DHT22;52862;52.504;13.480;2023-05-21T10:00:37;25.60;99.90
51867;DHT22;52862;52.504;13.480;2023-05-21T10:03:08;25.50;99.90
51867;DHT22;52862;52.504;13.480;2023-05-21T10:05:38;25.70;99.90
51867;DHT22;52862;52.504;13.480;2023-05-21T10:08:07;25.30;99.90
51867;DHT22;52862;52.504;13.480;2023-05-21T10:10:35;25.60;99.90
51867;DHT22;52862;52.504;13.480;2023-05-21T10:13:04;25.60;99.90
51867;DHT22;52862;52.504;13.480;2023-05-21T10:15:37;25.60;99.90
51867;DHT22;52862;52.504;13.480;2023-05-21T10:18:05;25.70;99.90
51867;DHT22;52862;52.504;13.480;2023-05-21T10:20:32;26.00;99.90
51867;DHT22;52862;52.504;13.480;2023-05-21T10:23:01;26.00;99.90
51867;DHT22;52862;52.504;13.480;2023-05-21T10:25:28;26.30;99.90
51867;DHT22;52862;52.504;13.480;2023-05-21T10:27:56;26.10;99.90
51867;DHT22;52862;52.504;13.480;2023-05-21T10:30:23;26.20;99.90
51867;DHT22;52862;52.504;13.480;2023-05-21T10:32:50;26.30;99.90
51867;DHT22;52862;52.504;13.480;2023-05-21T10:35:18;26.70;99.90
51867;DHT22;52862;52.504;13.480;2023-05-21T10:37:45;26.70;99.90
51867;DHT22;52862;52.504;13.480;2023-05-21T10:40:13;26.80;99.90
51867;DHT22;52862;52.504;13.480;2023-05-21T10:43:09;27.10;99.90
51867;DHT22;52862;52.504;13.480;2023-05-21T10:45:49;27.40;99.90
51867;DHT22;52862;52.504;13.480;2023-05-21T10:48:34;27.50;99.90
51867;DHT22;52862;52.504;13.480;2023-05-21T10:51:13;27.50;99.90
51867;DHT22;52862;52.504;13.480;2023-05-21T10:56:40;27.90;99.90
51867;DHT22;52862;52.504;13.480;2023-05-21T10:59:25;28.20;99.20
51867;DHT22;52862;52.504;13.480;2023-05-21T11:01:56;28.10;98.70
51867;DHT22;52862;52.504;13.480;2023-05-21T11:04:26;28.10;98.50
51867;DHT22;52862;52.504;13.480;2023-05-21T11:06:53;27.90;98.40
51867;DHT22;52862;52.504;13.480;2023-05-21T11:09:21;27.90;98.40
51867;DHT22;52862;52.504;13.480;2023-05-21T11:11:50;27.60;98.40
51867;DHT22;52862;52.504;13.480;2023-05-21T11:14:28;27.50;98.50
51867;DHT22;52862;52.504;13.480;2023-05-21T11:16:58;27.60;98.40
51867;DHT22;52862;52.504;13.480;2023-05-21T11:19:34;27.50;98.50
51867;DHT22;52862;52.504;13.480;2023-05-21T11:22:09;27.80;98.00
51867;DHT22;52862;52.504;13.480;2023-05-21T11:24:37;27.60;97.40
51867;DHT22;52862;52.504;13.480;2023-05-21T11:27:05;27.50;97.80
51867;DHT22;52862;52.504;13.480;2023-05-21T11:29:39;27.50;97.90
51867;DHT22;52862;52.504;13.480;2023-05-21T11:32:06;27.50;97.90
51867;DHT22;52862;52.504;13.480;2023-05-21T11:34:38;27.60;97.30
51867;DHT22;52862;52.504;13.480;2023-05-21T11:37:22;27.70;97.20
51867;DHT22;52862;52.504;13.480;2023-05-21T11:39:51;27.90;96.90
51867;DHT22;52862;52.504;13.480;2023-05-21T11:42:28;28.00;96.60
51867;DHT22;52862;52.504;13.480;2023-05-21T11:44:55;28.20;96.40
51867;DHT22;52862;52.504;13.480;2023-05-21T11:47:23;28.50;96.70
51867;DHT22;52862;52.504;13.480;2023-05-21T11:49:51;28.70;95.50
51867;DHT22;52862;52.504;13.480;2023-05-21T11:52:18;29.20;95.40
51867;DHT22;52862;52.504;13.480;2023-05-21T11:54:46;29.50;94.80
51867;DHT22;52862;52.504;13.480;2023-05-21T11:57:16;29.60;94.50
51867;DHT22;52862;52.504;13.480;2023-05-21T11:59:44;29.60;93.90
51867;DHT22;52862;52.504;13.480;2023-05-21T12:02:14;29.90;93.70
51867;DHT22;52862;52.504;13.480;2023-05-21T12:04:42;30.00;92.60
51867;DHT22;52862;52.504;13.480;2023-05-21T12:07:09;29.90;92.00
51867;DHT22;52862;52.504;13.480;2023-05-21T12:09:39;30.20;92.20
51867;DHT22;52862;52.504;13.480;2023-05-21T12:12:07;30.30;91.70
51867;DHT22;52862;52.504;13.480;2023-05-21T12:14:34;30.40;91.50
51867;DHT22;52862;52.504;13.480;2023-05-21T12:17:02;30.30;91.20
51867;DHT22;52862;52.504;13.480;2023-05-21T12:19:31;30.20;91.10
51867;DHT22;52862;52.504;13.480;2023-05-21T12:22:00;29.80;90.90
51867;DHT22;52862;52.504;13.480;2023-05-21T12:24:28;29.50;91.40
51867;DHT22;52862;52.504;13.480;2023-05-21T12:26:55;29.10;92.20
51867;DHT22;52862;52.504;13.480;2023-05-21T12:29:24;29.40;91.50
51867;DHT22;52862;52.504;13.480;2023-05-21T12:31:51;29.70;91.70
51867;DHT22;52862;52.504;13.480;2023-05-21T12:34:37;29.80;90.60
51867;DHT22;52862;52.504;13.480;2023-05-21T12:37:04;29.80;90.90
51867;DHT22;52862;52.504;13.480;2023-05-21T12:39:35;29.80;90.50
51867;DHT22;52862;52.504;13.480;2023-05-21T12:42:03;29.80;90.60
51867;DHT22;52862;52.504;13.480;2023-05-21T12:44:30;29.90;90.50
51867;DHT22;52862;52.504;13.480;2023-05-21T12:46:57;30.00;89.90
51867;DHT22;52862;52.504;13.480;2023-05-21T12:49:34;29.70;90.10
51867;DHT22;52862;52.504;13.480;2023-05-21T12:52:03;30.20;89.60
51867;DHT22;52862;52.504;13.480;2023-05-21T12:54:33;30.60;90.10
51867;DHT22;52862;52.504;13.480;2023-05-21T12:57:10;31.10;88.60
51867;DHT22;52862;52.504;13.480;2023-05-21T12:59:49;31.20;86.80
51867;DHT22;52862;52.504;13.480;2023-05-21T13:02:19;31.10;86.70
51867;DHT22;52862;52.504;13.480;2023-05-21T13:04:46;30.80;87.40
51867;DHT22;52862;52.504;13.480;2023-05-21T13:07:14;30.40;87.50
51867;DHT22;52862;52.504;13.480;2023-05-21T13:09:41;29.80;88.40
51867;DHT22;52862;52.504;13.480;2023-05-21T13:12:08;29.70;88.60
51867;DHT22;52862;52.504;13.480;2023-05-21T13:14:35;29.70;89.30
51867;DHT22;52862;52.504;13.480;2023-05-21T13:17:01;29.80;89.20
51867;DHT22;52862;52.504;13.480;2023-05-21T13:19:28;30.00;89.30
51867;DHT22;52862;52.504;13.480;2023-05-21T13:21:55;29.70;89.40
51867;DHT22;52862;52.504;13.480;2023-05-21T13:24:23;29.60;90.00
51867;DHT22;52862;52.504;13.480;2023-05-21T13:26:49;29.30;90.00
51867;DHT22;52862;52.504;13.480;2023-05-21T13:29:16;29.00;90.20
51867;DHT22;52862;52.504;13.480;2023-05-21T13:31:43;29.00;90.50
51867;DHT22;52862;52.504;13.480;2023-05-21T13:34:11;29.00;90.30
51867;DHT22;52862;52.504;13.480;2023-05-21T13:36:40;28.90;90.60
51867;DHT22;52862;52.504;13.480;2023-05-21T13:39:06;28.50;90.80
51867;DHT22;52862;52.504;13.480;2023-05-21T13:41:34;28.90;90.70
51867;DHT22;52862;52.504;13.480;2023-05-21T13:44:00;29.70;90.20
51867;DHT22;52862;52.504;13.480;2023-05-21T13:46:27;30.30;88.80
51867;DHT22;52862;52.504;13.480;2023-05-21T13:48:54;30.50;86.90
51867;DHT22;52862;52.504;13.480;2023-05-21T13:51:21;30.50;88.00
51867;DHT22;52862;52.504;13.480;2023-05-21T13:54:04;30.70;86.60
51867;DHT22;52862;52.504;13.480;2023-05-21T13:56:31;30.70;86.60
51867;DHT22;52862;52.504;13.480;2023-05-21T13:59:00;31.00;86.30
51867;DHT22;52862;52.504;13.480;2023-05-21T14:01:27;31.80;84.50
51867;DHT22;52862;52.504;13.480;2023-05-21T14:03:54;32.40;82.20
51867;DHT22;52862;52.504;13.480;2023-05-21T14:06:20;32.60;81.10
51867;DHT22;52862;52.504;13.480;2023-05-21T14:08:47;33.10;80.50
51867;DHT22;52862;52.504;13.480;2023-05-21T14:11:14;34.20;77.50
51867;DHT22;52862;52.504;13.480;2023-05-21T14:13:41;35.40;73.30
51867;DHT22;52862;52.504;13.480;2023-05-21T14:16:09;35.90;71.50
51867;DHT22;52862;52.504;13.480;2023-05-21T14:18:35;36.30;70.10
51867;DHT22;52862;52.504;13.480;2023-05-21T14:21:02;36.10;68.60
51867;DHT22;52862;52.504;13.480;2023-05-21T14:23:29;35.90;69.20
51867;DHT22;52862;52.504;13.480;2023-05-21T14:25:56;35.90;68.80
51867;DHT22;52862;52.504;13.480;2023-05-21T14:28:22;36.50;66.40
51867;DHT22;52862;52.504;13.480;2023-05-21T14:30:49;36.50;66.20
51867;DHT22;52862;52.504;13.480;2023-05-21T14:33:16;36.20;65.60
51867;DHT22;52862;52.504;13.480;2023-05-21T14:35:43;35.30;65.70
51867;DHT22;52862;52.504;13.480;2023-05-21T14:38:10;35.50;67.00
51867;DHT22;52862;52.504;13.480;2023-05-21T14:40:37;36.20;65.50
51867;DHT22;52862;52.504;13.480;2023-05-21T14:43:04;36.60;64.20
51867;DHT22;52862;52.504;13.480;2023-05-21T14:45:31;36.70;64.10
51867;DHT22;52862;52.504;13.480;2023-05-21T14:48:00;36.70;63.00
51867;DHT22;52862;52.504;13.480;2023-05-21T14:50:27;35.80;63.60
51867;DHT22;52862;52.504;13.480;2023-05-21T14:52:54;35.60;65.00
51867;DHT22;52862;52.504;13.480;2023-05-21T14:55:21;35.00;64.50
51867;DHT22;52862;52.504;13.480;2023-05-21T14:57:48;35.20;64.90
51867;DHT22;52862;52.504;13.480;2023-05-21T15:00:15;34.70;64.60
51867;DHT22;52862;52.504;13.480;2023-05-21T15:02:41;33.80;66.00
51867;DHT22;52862;52.504;13.480;2023-05-21T15:05:09;33.60;67.10
51867;DHT22;52862;52.504;13.480;2023-05-21T15:07:36;33.60;66.60
51867;DHT22;52862;52.504;13.480;2023-05-21T15:10:04;33.70;66.00
51867;DHT22;52862;52.504;13.480;2023-05-21T15:12:38;34.40;66.00
51867;DHT22;52862;52.504;13.480;2023-05-21T15:15:06;35.40;64.30
51867;DHT22;52862;52.504;13.480;2023-05-21T15:17:33;35.50;63.70
51867;DHT22;52862;52.504;13.480;2023-05-21T15:20:00;34.20;64.20
51867;DHT22;52862;52.504;13.480;2023-05-21T15:22:29;34.30;65.30
51867;DHT22;52862;52.504;13.480;2023-05-21T15:24:56;33.70;65.90
51867;DHT22;52862;52.504;13.480;2023-05-21T15:27:23;33.60;66.10
51867;DHT22;52862;52.504;13.480;2023-05-21T15:29:50;33.50;66.00
51867;DHT22;52862;52.504;13.480;2023-05-21T15:32:17;33.70;65.00
51867;DHT22;52862;52.504;13.480;2023-05-21T15:34:46;33.70;65.00
51867;DHT22;52862;52.504;13.480;2023-05-21T15:37:13;32.80;65.90
51867;DHT22;52862;52.504;13.480;2023-05-21T15:39:41;32.00;68.30
51867;DHT22;52862;52.504;13.480;2023-05-21T15:42:11;31.60;69.10
51867;DHT22;52862;52.504;13.480;2023-05-21T15:44:39;31.40;69.10
51867;DHT22;52862;52.504;13.480;2023-05-21T15:47:06;31.20;70.00
51867;DHT22;52862;52.504;13.480;2023-05-21T15:49:33;30.80;70.40
51867;DHT22;52862;52.504;13.480;2023-05-21T15:52:01;30.80;71.00
51867;DHT22;52862;52.504;13.480;2023-05-21T15:54:28;30.90;70.50
51867;DHT22;52862;52.504;13.480;2023-05-21T15:56:56;31.00;70.30
51867;DHT22;52862;52.504;13.480;2023-05-21T15:59:23;31.10;69.20
51867;DHT22;52862;52.504;13.480;2023-05-21T16:01:50;31.10;69.60
51867;DHT22;52862;52.504;13.480;2023-05-21T16:04:17;31.00;70.00
51867;DHT22;52862;52.504;13.480;2023-05-21T16:06:45;31.20;69.10
51867;DHT22;52862;52.504;13.480;2023-05-21T16:09:12;31.50;69.00
51867;DHT22;52862;52.504;13.480;2023-05-21T16:11:39;31.20;69.40
51867;DHT22;52862;52.504;13.480;2023-05-21T16:14:06;30.90;69.50
51867;DHT22;52862;52.504;13.480;2023-05-21T16:16:33;30.40;70.40
51867;DHT22;52862;52.504;13.480;2023-05-21T16:19:00;30.20;70.50
51867;DHT22;52862;52.504;13.480;2023-05-21T16:21:27;30.80;69.90
51867;DHT22;52862;52.504;13.480;2023-05-21T16:23:54;31.40;68.50
51867;DHT22;52862;52.504;13.480;2023-05-21T16:26:21;31.10;68.30
51867;DHT22;52862;52.504;13.480;2023-05-21T16:28:48;30.90;70.30
51867;DHT22;52862;52.504;13.480;2023-05-21T16:31:14;30.50;69.50
51867;DHT22;52862;52.504;13.480;2023-05-21T16:33:42;30.00;70.70
51867;DHT22;52862;52.504;13.480;2023-05-21T16:36:09;29.50;71.50
51867;DHT22;52862;52.504;13.480;2023-05-21T16:38:36;29.20;72.20
51867;DHT22;52862;52.504;13.480;2023-05-21T16:41:03;28.90;72.30